Lowell, Idaho
Current Conditions -  °F | °C
As of 6:35 AM on Saturday 25 Oct 2014 (Local Time) from KGIC Reporting Station
Overcast Overcast  
Wind Chill: 40°   Ceiling: 100
Heat Index: 40°   Visibility: 0.75mi
Dew Point: 38°   Wind: 0mph
Humidity: 95%   Direction: NA
Pressure: 29.82"   Gusts: NA
Location:  46.2989°N, 115.619°W
Report Text: KGIC 251335Z AUTO 00000KT 3/4SM OVC001 04/04 A2982 RMK AO1 T00430035
Loading
Personal Weather Stations






























Interactive Weather Map
Tropical Storm Tracking
New forecast layout! Learn more

10-Day Weather Forecast

Advertisements
Track Severe Weather on mobile